sensor_id;sensor_type;location;lat;lon;timestamp;temperature;humidity
16114;DHT22;8161;-33.910;151.156;2022-12-18T00:02:16;19.40;99.90
16114;DHT22;8161;-33.910;151.156;2022-12-18T00:04:44;18.90;99.90
16114;DHT22;8161;-33.910;151.156;2022-12-18T00:07:11;19.20;99.90
16114;DHT22;8161;-33.910;151.156;2022-12-18T00:09:39;19.20;99.90
16114;DHT22;8161;-33.910;151.156;2022-12-18T00:12:06;18.80;99.90
16114;DHT22;8161;-33.910;151.156;2022-12-18T00:14:33;19.00;99.90
16114;DHT22;8161;-33.910;151.156;2022-12-18T00:17:01;19.30;99.90
16114;DHT22;8161;-33.910;151.156;2022-12-18T00:19:29;18.80;99.90
16114;DHT22;8161;-33.910;151.156;2022-12-18T00:21:56;19.50;99.90
16114;DHT22;8161;-33.910;151.156;2022-12-18T00:24:24;19.00;99.90
16114;DHT22;8161;-33.910;151.156;2022-12-18T00:26:51;19.50;99.90
16114;DHT22;8161;-33.910;151.156;2022-12-18T00:29:19;19.70;99.90
16114;DHT22;8161;-33.910;151.156;2022-12-18T00:31:46;19.60;99.90
16114;DHT22;8161;-33.910;151.156;2022-12-18T00:34:14;19.50;99.90
16114;DHT22;8161;-33.910;151.156;2022-12-18T00:36:41;20.00;99.90
16114;DHT22;8161;-33.910;151.156;2022-12-18T00:39:09;19.90;99.90
16114;DHT22;8161;-33.910;151.156;2022-12-18T00:41:38;20.30;99.90
16114;DHT22;8161;-33.910;151.156;2022-12-18T00:44:18;19.70;99.90
16114;DHT22;8161;-33.910;151.156;2022-12-18T00:46:47;20.00;99.90
16114;DHT22;8161;-33.910;151.156;2022-12-18T00:49:17;20.20;99.90
16114;DHT22;8161;-33.910;151.156;2022-12-18T00:51:44;20.20;99.90
16114;DHT22;8161;-33.910;151.156;2022-12-18T00:54:12;20.30;99.90
16114;DHT22;8161;-33.910;151.156;2022-12-18T00:56:40;20.60;99.90
16114;DHT22;8161;-33.910;151.156;2022-12-18T00:59:07;20.90;99.90
16114;DHT22;8161;-33.910;151.156;2022-12-18T01:01:35;20.10;99.90
16114;DHT22;8161;-33.910;151.156;2022-12-18T01:04:03;19.80;99.90
16114;DHT22;8161;-33.910;151.156;2022-12-18T01:06:30;19.70;99.90
16114;DHT22;8161;-33.910;151.156;2022-12-18T01:08:57;19.20;99.90
16114;DHT22;8161;-33.910;151.156;2022-12-18T01:11:25;19.20;99.90
16114;DHT22;8161;-33.910;151.156;2022-12-18T01:13:53;18.70;99.90
16114;DHT22;8161;-33.910;151.156;2022-12-18T01:16:21;18.80;99.90
16114;DHT22;8161;-33.910;151.156;2022-12-18T01:18:52;18.20;99.90
16114;DHT22;8161;-33.910;151.156;2022-12-18T01:21:22;18.20;99.90
16114;DHT22;8161;-33.910;151.156;2022-12-18T01:23:54;17.90;99.90
16114;DHT22;8161;-33.910;151.156;2022-12-18T01:26:21;18.40;99.90
16114;DHT22;8161;-33.910;151.156;2022-12-18T01:28:49;18.10;99.90
16114;DHT22;8161;-33.910;151.156;2022-12-18T01:31:20;18.00;99.90
16114;DHT22;8161;-33.910;151.156;2022-12-18T01:33:50;18.20;99.90
16114;DHT22;8161;-33.910;151.156;2022-12-18T01:36:20;19.00;99.90
16114;DHT22;8161;-33.910;151.156;2022-12-18T01:38:48;18.90;99.90
16114;DHT22;8161;-33.910;151.156;2022-12-18T01:41:22;19.30;99.90
16114;DHT22;8161;-33.910;151.156;2022-12-18T01:46:19;19.50;99.90
16114;DHT22;8161;-33.910;151.156;2022-12-18T01:48:49;19.40;99.90
16114;DHT22;8161;-33.910;151.156;2022-12-18T01:51:23;19.40;99.90
16114;DHT22;8161;-33.910;151.156;2022-12-18T01:53:50;19.40;99.90
16114;DHT22;8161;-33.910;151.156;2022-12-18T01:56:19;19.60;99.90
16114;DHT22;8161;-33.910;151.156;2022-12-18T02:01:19;18.70;99.90
16114;DHT22;8161;-33.910;151.156;2022-12-18T02:03:46;19.00;99.90
16114;DHT22;8161;-33.910;151.156;2022-12-18T02:06:19;18.80;99.90
16114;DHT22;8161;-33.910;151.156;2022-12-18T02:12:00;18.80;99.90
16114;DHT22;8161;-33.910;151.156;2022-12-18T02:14:40;18.90;99.90
16114;DHT22;8161;-33.910;151.156;2022-12-18T02:17:23;18.90;99.90
16114;DHT22;8161;-33.910;151.156;2022-12-18T02:28:12;19.00;99.90
16114;DHT22;8161;-33.910;151.156;2022-12-18T02:30:41;19.20;99.90
16114;DHT22;8161;-33.910;151.156;2022-12-18T02:33:11;19.30;99.90
16114;DHT22;8161;-33.910;151.156;2022-12-18T02:35:41;19.60;99.90
16114;DHT22;8161;-33.910;151.156;2022-12-18T02:38:09;19.70;99.90
16114;DHT22;8161;-33.910;151.156;2022-12-18T02:40:38;20.40;99.90
16114;DHT22;8161;-33.910;151.156;2022-12-18T02:43:12;20.50;99.90
16114;DHT22;8161;-33.910;151.156;2022-12-18T02:45:53;20.70;99.90
16114;DHT22;8161;-33.910;151.156;2022-12-18T02:48:31;20.90;99.90
16114;DHT22;8161;-33.910;151.156;2022-12-18T02:51:11;21.50;99.90
16114;DHT22;8161;-33.910;151.156;2022-12-18T02:54:06;21.60;99.90
16114;DHT22;8161;-33.910;151.156;2022-12-18T02:56:42;22.00;99.90
16114;DHT22;8161;-33.910;151.156;2022-12-18T02:59:23;21.40;99.90
16114;DHT22;8161;-33.910;151.156;2022-12-18T03:02:17;22.00;99.90
16114;DHT22;8161;-33.910;151.156;2022-12-18T03:07:36;22.10;99.90
16114;DHT22;8161;-33.910;151.156;2022-12-18T03:10:07;22.80;99.90
16114;DHT22;8161;-33.910;151.156;2022-12-18T03:12:47;22.50;99.90
16114;DHT22;8161;-33.910;151.156;2022-12-18T03:15:25;22.80;99.90
16114;DHT22;8161;-33.910;151.156;2022-12-18T03:18:02;22.70;99.90
16114;DHT22;8161;-33.910;151.156;2022-12-18T03:20:32;22.30;99.90
16114;DHT22;8161;-33.910;151.156;2022-12-18T03:23:12;22.40;99.90
16114;DHT22;8161;-33.910;151.156;2022-12-18T03:25:42;22.60;99.90
16114;DHT22;8161;-33.910;151.156;2022-12-18T03:28:14;22.30;99.90
16114;DHT22;8161;-33.910;151.156;2022-12-18T03:30:45;19.10;99.90
16114;DHT22;8161;-33.910;151.156;2022-12-18T03:33:27;22.20;99.90
16114;DHT22;8161;-33.910;151.156;2022-12-18T03:35:56;22.00;99.90
16114;DHT22;8161;-33.910;151.156;2022-12-18T03:38:23;22.70;99.90
16114;DHT22;8161;-33.910;151.156;2022-12-18T03:41:07;22.40;99.90
16114;DHT22;8161;-33.910;151.156;2022-12-18T03:46:33;22.20;99.90
16114;DHT22;8161;-33.910;151.156;2022-12-18T03:52:09;22.40;99.90
16114;DHT22;8161;-33.910;151.156;2022-12-18T03:54:39;22.60;99.90
16114;DHT22;8161;-33.910;151.156;2022-12-18T03:57:14;21.80;99.90
16114;DHT22;8161;-33.910;151.156;2022-12-18T03:59:45;22.30;99.90
16114;DHT22;8161;-33.910;151.156;2022-12-18T04:02:16;22.40;99.90
16114;DHT22;8161;-33.910;151.156;2022-12-18T04:04:45;22.40;99.90
16114;DHT22;8161;-33.910;151.156;2022-12-18T04:07:15;21.50;99.90
16114;DHT22;8161;-33.910;151.156;2022-12-18T04:09:44;21.80;99.90
16114;DHT22;8161;-33.910;151.156;2022-12-18T04:12:12;21.90;99.90
16114;DHT22;8161;-33.910;151.156;2022-12-18T04:14:39;21.90;99.90
16114;DHT22;8161;-33.910;151.156;2022-12-18T04:17:06;22.00;99.90
16114;DHT22;8161;-33.910;151.156;2022-12-18T04:19:33;21.80;99.90
16114;DHT22;8161;-33.910;151.156;2022-12-18T04:22:01;22.40;99.90
16114;DHT22;8161;-33.910;151.156;2022-12-18T04:24:28;21.90;99.90
16114;DHT22;8161;-33.910;151.156;2022-12-18T04:26:55;21.90;99.90
16114;DHT22;8161;-33.910;151.156;2022-12-18T04:29:22;22.90;99.90
16114;DHT22;8161;-33.910;151.156;2022-12-18T04:31:50;22.60;99.90
16114;DHT22;8161;-33.910;151.156;2022-12-18T04:34:17;22.80;99.90
16114;DHT22;8161;-33.910;151.156;2022-12-18T04:36:44;23.00;99.90
16114;DHT22;8161;-33.910;151.156;2022-12-18T04:39:11;22.40;99.90
16114;DHT22;8161;-33.910;151.156;2022-12-18T04:41:38;22.60;99.90
16114;DHT22;8161;-33.910;151.156;2022-12-18T04:44:06;22.80;99.90
16114;DHT22;8161;-33.910;151.156;2022-12-18T04:46:33;22.60;99.90
16114;DHT22;8161;-33.910;151.156;2022-12-18T04:49:01;22.80;99.90
16114;DHT22;8161;-33.910;151.156;2022-12-18T04:51:28;22.60;99.90
16114;DHT22;8161;-33.910;151.156;2022-12-18T04:53:55;23.10;99.90
16114;DHT22;8161;-33.910;151.156;2022-12-18T04:56:23;23.40;99.90
16114;DHT22;8161;-33.910;151.156;2022-12-18T04:58:50;23.80;99.90
16114;DHT22;8161;-33.910;151.156;2022-12-18T05:01:19;23.20;99.90
16114;DHT22;8161;-33.910;151.156;2022-12-18T05:03:47;23.70;99.90
16114;DHT22;8161;-33.910;151.156;2022-12-18T05:06:14;23.90;99.90
16114;DHT22;8161;-33.910;151.156;2022-12-18T05:08:41;23.60;99.90
16114;DHT22;8161;-33.910;151.156;2022-12-18T05:11:12;23.50;99.90
16114;DHT22;8161;-33.910;151.156;2022-12-18T05:13:43;24.00;99.90
16114;DHT22;8161;-33.910;151.156;2022-12-18T05:16:11;23.40;99.90
16114;DHT22;8161;-33.910;151.156;2022-12-18T05:18:39;23.40;99.90
16114;DHT22;8161;-33.910;151.156;2022-12-18T05:21:06;23.30;99.90
16114;DHT22;8161;-33.910;151.156;2022-12-18T05:23:33;23.80;99.90
16114;DHT22;8161;-33.910;151.156;2022-12-18T05:26:03;23.60;99.90
16114;DHT22;8161;-33.910;151.156;2022-12-18T05:28:32;24.10;99.90
16114;DHT22;8161;-33.910;151.156;2022-12-18T05:31:01;23.80;99.90
16114;DHT22;8161;-33.910;151.156;2022-12-18T05:33:33;23.70;99.90
16114;DHT22;8161;-33.910;151.156;2022-12-18T05:36:03;24.00;99.90
16114;DHT22;8161;-33.910;151.156;2022-12-18T05:38:32;23.80;99.90
16114;DHT22;8161;-33.910;151.156;2022-12-18T05:41:03;24.20;99.90
16114;DHT22;8161;-33.910;151.156;2022-12-18T05:43:30;24.20;99.90
16114;DHT22;8161;-33.910;151.156;2022-12-18T05:45:57;24.00;99.90
16114;DHT22;8161;-33.910;151.156;2022-12-18T05:48:25;24.50;99.90
16114;DHT22;8161;-33.910;151.156;2022-12-18T05:50:52;24.10;99.90
16114;DHT22;8161;-33.910;151.156;2022-12-18T05:53:20;24.00;99.90
16114;DHT22;8161;-33.910;151.156;2022-12-18T05:55:48;24.50;99.90
16114;DHT22;8161;-33.910;151.156;2022-12-18T05:58:15;24.40;99.90
16114;DHT22;8161;-33.910;151.156;2022-12-18T06:00:45;24.40;99.90
16114;DHT22;8161;-33.910;151.156;2022-12-18T06:03:13;24.80;99.90
16114;DHT22;8161;-33.910;151.156;2022-12-18T06:05:43;25.00;99.90
16114;DHT22;8161;-33.910;151.156;2022-12-18T06:08:12;24.60;99.90
16114;DHT22;8161;-33.910;151.156;2022-12-18T06:10:40;24.70;99.90
16114;DHT22;8161;-33.910;151.156;2022-12-18T06:13:08;24.40;99.90
16114;DHT22;8161;-33.910;151.156;2022-12-18T06:15:38;24.50;99.90
16114;DHT22;8161;-33.910;151.156;2022-12-18T06:18:05;24.20;99.90
16114;DHT22;8161;-33.910;151.156;2022-12-18T06:20:33;23.90;99.90
16114;DHT22;8161;-33.910;151.156;2022-12-18T06:23:03;24.20;99.90
16114;DHT22;8161;-33.910;151.156;2022-12-18T06:25:31;24.30;99.90
16114;DHT22;8161;-33.910;151.156;2022-12-18T06:27:58;24.30;99.90
16114;DHT22;8161;-33.910;151.156;2022-12-18T06:30:26;24.10;99.90
16114;DHT22;8161;-33.910;151.156;2022-12-18T06:32:53;24.30;99.90
16114;DHT22;8161;-33.910;151.156;2022-12-18T06:35:21;23.90;99.90
16114;DHT22;8161;-33.910;151.156;2022-12-18T06:37:48;24.50;99.90
16114;DHT22;8161;-33.910;151.156;2022-12-18T06:40:16;23.80;99.90
16114;DHT22;8161;-33.910;151.156;2022-12-18T06:42:43;24.10;99.90
16114;DHT22;8161;-33.910;151.156;2022-12-18T06:45:11;23.80;99.90
16114;DHT22;8161;-33.910;151.156;2022-12-18T06:47:42;23.50;99.90
16114;DHT22;8161;-33.910;151.156;2022-12-18T06:50:09;23.20;99.90
16114;DHT22;8161;-33.910;151.156;2022-12-18T06:52:36;23.30;99.90
16114;DHT22;8161;-33.910;151.156;2022-12-18T06:55:06;23.20;99.90
16114;DHT22;8161;-33.910;151.156;2022-12-18T06:57:35;23.30;99.90
16114;DHT22;8161;-33.910;151.156;2022-12-18T07:00:04;23.20;99.90
16114;DHT22;8161;-33.910;151.156;2022-12-18T07:02:32;23.20;99.90
16114;DHT22;8161;-33.910;151.156;2022-12-18T07:05:00;22.60;99.90
16114;DHT22;8161;-33.910;151.156;2022-12-18T07:07:30;22.30;99.90
16114;DHT22;8161;-33.910;151.156;2022-12-18T07:09:57;22.30;99.90
16114;DHT22;8161;-33.910;151.156;2022-12-18T07:12:26;22.30;99.90
16114;DHT22;8161;-33.910;151.156;2022-12-18T07:14:53;21.80;99.90
16114;DHT22;8161;-33.910;151.156;2022-12-18T07:17:20;21.50;99.90
16114;DHT22;8161;-33.910;151.156;2022-12-18T07:19:48;21.40;99.90
16114;DHT22;8161;-33.910;151.156;2022-12-18T07:22:15;21.10;99.90
16114;DHT22;8161;-33.910;151.156;2022-12-18T07:24:43;21.10;99.90
16114;DHT22;8161;-33.910;151.156;2022-12-18T07:27:10;21.10;99.90
16114;DHT22;8161;-33.910;151.156;2022-12-18T07:29:37;21.00;99.90
16114;DHT22;8161;-33.910;151.156;2022-12-18T07:32:05;21.10;99.90
16114;DHT22;8161;-33.910;151.156;2022-12-18T07:34:34;21.40;99.90
16114;DHT22;8161;-33.910;151.156;2022-12-18T07:37:01;20.80;99.90
16114;DHT22;8161;-33.910;151.156;2022-12-18T07:39:28;21.20;99.90
16114;DHT22;8161;-33.910;151.156;2022-12-18T07:41:56;21.00;99.90
16114;DHT22;8161;-33.910;151.156;2022-12-18T07:44:36;20.90;99.90
16114;DHT22;8161;-33.910;151.156;2022-12-18T07:47:04;21.10;99.90
16114;DHT22;8161;-33.910;151.156;2022-12-18T07:49:31;20.30;99.90
16114;DHT22;8161;-33.910;151.156;2022-12-18T07:51:58;20.40;99.90
16114;DHT22;8161;-33.910;151.156;2022-12-18T07:54:26;20.10;99.90
16114;DHT22;8161;-33.910;151.156;2022-12-18T07:56:53;20.20;99.90
16114;DHT22;8161;-33.910;151.156;2022-12-18T07:59:20;20.30;99.90
16114;DHT22;8161;-33.910;151.156;2022-12-18T08:01:48;20.50;99.90
16114;DHT22;8161;-33.910;151.156;2022-12-18T08:04:15;20.10;99.90
16114;DHT22;8161;-33.910;151.156;2022-12-18T08:06:42;20.00;99.90
16114;DHT22;8161;-33.910;151.156;2022-12-18T08:09:10;19.90;99.90
16114;DHT22;8161;-33.910;151.156;2022-12-18T08:11:38;20.10;99.90
16114;DHT22;8161;-33.910;151.156;2022-12-18T08:14:05;19.90;99.90
16114;DHT22;8161;-33.910;151.156;2022-12-18T08:16:32;20.00;99.90
16114;DHT22;8161;-33.910;151.156;2022-12-18T08:18:59;20.10;99.90
16114;DHT22;8161;-33.910;151.156;2022-12-18T08:21:30;19.80;99.90
16114;DHT22;8161;-33.910;151.156;2022-12-18T08:24:00;19.70;99.90
16114;DHT22;8161;-33.910;151.156;2022-12-18T08:26:29;19.50;99.90
16114;DHT22;8161;-33.910;151.156;2022-12-18T08:28:58;19.40;99.90
16114;DHT22;8161;-33.910;151.156;2022-12-18T08:31:27;19.80;99.90
16114;DHT22;8161;-33.910;151.156;2022-12-18T08:33:55;19.80;99.90
16114;DHT22;8161;-33.910;151.156;2022-12-18T08:36:23;19.00;99.90
16114;DHT22;8161;-33.910;151.156;2022-12-18T08:38:51;19.50;99.90
16114;DHT22;8161;-33.910;151.156;2022-12-18T08:41:20;19.40;99.90
16114;DHT22;8161;-33.910;151.156;2022-12-18T08:43:47;19.00;99.90
16114;DHT22;8161;-33.910;151.156;2022-12-18T08:46:31;19.30;99.90
16114;DHT22;8161;-33.910;151.156;2022-12-18T08:48:59;19.20;99.90
16114;DHT22;8161;-33.910;151.156;2022-12-18T08:51:26;19.50;99.90
16114;DHT22;8161;-33.910;151.156;2022-12-18T08:53:53;19.10;99.90
16114;DHT22;8161;-33.910;151.156;2022-12-18T08:56:20;18.90;99.90
16114;DHT22;8161;-33.910;151.156;2022-12-18T08:58:50;18.90;99.90
16114;DHT22;8161;-33.910;151.156;2022-12-18T09:01:17;18.70;99.90
16114;DHT22;8161;-33.910;151.156;2022-12-18T09:03:45;18.40;99.90
16114;DHT22;8161;-33.910;151.156;2022-12-18T09:06:15;18.50;99.90
16114;DHT22;8161;-33.910;151.156;2022-12-18T09:08:46;18.30;99.90
16114;DHT22;8161;-33.910;151.156;2022-12-18T09:11:21;18.10;99.90
16114;DHT22;8161;-33.910;151.156;2022-12-18T09:13:49;18.20;99.90
16114;DHT22;8161;-33.910;151.156;2022-12-18T09:16:17;18.20;99.90
16114;DHT22;8161;-33.910;151.156;2022-12-18T09:18:46;18.20;99.90
16114;DHT22;8161;-33.910;151.156;2022-12-18T09:21:16;17.90;99.90
16114;DHT22;8161;-33.910;151.156;2022-12-18T09:23:43;18.00;99.90
16114;DHT22;8161;-33.910;151.156;2022-12-18T09:26:11;18.00;99.90
16114;DHT22;8161;-33.910;151.156;2022-12-18T09:28:38;18.10;99.90
16114;DHT22;8161;-33.910;151.156;2022-12-18T09:31:07;18.00;99.90
16114;DHT22;8161;-33.910;151.156;2022-12-18T09:33:38;18.10;99.90
16114;DHT22;8161;-33.910;151.156;2022-12-18T09:36:10;18.30;99.90
16114;DHT22;8161;-33.910;151.156;2022-12-18T09:38:38;18.00;99.90
16114;DHT22;8161;-33.910;151.156;2022-12-18T09:43:50;18.00;99.90
16114;DHT22;8161;-33.910;151.156;2022-12-18T09:46:32;18.60;99.90
16114;DHT22;8161;-33.910;151.156;2022-12-18T09:49:05;18.40;99.90
16114;DHT22;8161;-33.910;151.156;2022-12-18T09:51:57;18.40;99.90
16114;DHT22;8161;-33.910;151.156;2022-12-18T09:54:36;18.50;99.90
16114;DHT22;8161;-33.910;151.156;2022-12-18T09:57:05;18.30;99.90
16114;DHT22;8161;-33.910;151.156;2022-12-18T09:59:39;18.20;99.90
16114;DHT22;8161;-33.910;151.156;2022-12-18T10:02:26;18.40;99.90
16114;DHT22;8161;-33.910;151.156;2022-12-18T10:05:06;18.40;99.90
16114;DHT22;8161;-33.910;151.156;2022-12-18T10:07:53;18.00;99.90
16114;DHT22;8161;-33.910;151.156;2022-12-18T10:22:11;18.00;99.90
16114;DHT22;8161;-33.910;151.156;2022-12-18T10:27:23;18.40;99.90
16114;DHT22;8161;-33.910;151.156;2022-12-18T10:29:52;18.30;99.90
16114;DHT22;8161;-33.910;151.156;2022-12-18T10:32:25;18.10;99.90
16114;DHT22;8161;-33.910;151.156;2022-12-18T10:34:56;17.70;99.90
16114;DHT22;8161;-33.910;151.156;2022-12-18T10:37:27;18.50;99.90
16114;DHT22;8161;-33.910;151.156;2022-12-18T10:42:35;18.30;99.90
16114;DHT22;8161;-33.910;151.156;2022-12-18T10:45:12;18.20;99.90
16114;DHT22;8161;-33.910;151.156;2022-12-18T10:47:47;18.60;99.90
16114;DHT22;8161;-33.910;151.156;2022-12-18T10:50:30;17.80;99.90
16114;DHT22;8161;-33.910;151.156;2022-12-18T10:53:03;18.00;99.90
16114;DHT22;8161;-33.910;151.156;2022-12-18T10:55:37;17.40;99.90
16114;DHT22;8161;-33.910;151.156;2022-12-18T10:58:35;17.80;99.90
16114;DHT22;8161;-33.910;151.156;2022-12-18T11:06:20;17.50;99.90
16114;DHT22;8161;-33.910;151.156;2022-12-18T11:09:03;17.90;99.90
16114;DHT22;8161;-33.910;151.156;2022-12-18T11:11:32;17.80;99.90
16114;DHT22;8161;-33.910;151.156;2022-12-18T11:16:28;17.40;99.90
16114;DHT22;8161;-33.910;151.156;2022-12-18T11:19:18;17.50;99.90
16114;DHT22;8161;-33.910;151.156;2022-12-18T11:21:50;17.80;99.90
16114;DHT22;8161;-33.910;151.156;2022-12-18T11:24:31;17.90;99.90
16114;DHT22;8161;-33.910;151.156;2022-12-18T11:27:05;17.60;99.90
16114;DHT22;8161;-33.910;151.156;2022-12-18T11:29:40;17.80;99.90
16114;DHT22;8161;-33.910;151.156;2022-12-18T11:32:26;17.90;99.90
16114;DHT22;8161;-33.910;151.156;2022-12-18T11:37:51;17.80;99.90
16114;DHT22;8161;-33.910;151.156;2022-12-18T11:40:33;17.60;99.90
16114;DHT22;8161;-33.910;151.156;2022-12-18T11:48:55;17.50;99.90
16114;DHT22;8161;-33.910;151.156;2022-12-18T11:54:16;17.90;99.90
16114;DHT22;8161;-33.910;151.156;2022-12-18T11:56:53;17.50;99.90
16114;DHT22;8161;-33.910;151.156;2022-12-18T12:07:55;17.50;99.90
16114;DHT22;8161;-33.910;151.156;2022-12-18T12:19:48;18.10;99.90
16114;DHT22;8161;-33.910;151.156;2022-12-18T12:28:34;17.30;99.90
16114;DHT22;8161;-33.910;151.156;2022-12-18T12:30:53;17.30;99.90
16114;DHT22;8161;-33.910;151.156;2022-12-18T12:38:57;17.40;99.90
16114;DHT22;8161;-33.910;151.156;2022-12-18T12:41:30;17.20;99.90
16114;DHT22;8161;-33.910;151.156;2022-12-18T12:44:26;17.50;99.90
16114;DHT22;8161;-33.910;151.156;2022-12-18T12:47:04;17.50;99.90
16114;DHT22;8161;-33.910;151.156;2022-12-18T12:49:34;17.00;99.90
16114;DHT22;8161;-33.910;151.156;2022-12-18T13:01:03;17.20;99.90
16114;DHT22;8161;-33.910;151.156;2022-12-18T13:09:03;16.90;99.90
16114;DHT22;8161;-33.910;151.156;2022-12-18T13:11:43;17.10;99.90
16114;DHT22;8161;-33.910;151.156;2022-12-18T13:14:33;17.30;99.90
16114;DHT22;8161;-33.910;151.156;2022-12-18T13:19:44;17.00;99.90
16114;DHT22;8161;-33.910;151.156;2022-12-18T13:22:22;17.50;99.90
16114;DHT22;8161;-33.910;151.156;2022-12-18T13:24:51;17.20;99.90
16114;DHT22;8161;-33.910;151.156;2022-12-18T13:38:34;17.70;99.90
16114;DHT22;8161;-33.910;151.156;2022-12-18T13:43:48;18.10;99.90
16114;DHT22;8161;-33.910;151.156;2022-12-18T13:46:29;18.10;99.90
16114;DHT22;8161;-33.910;151.156;2022-12-18T13:51:33;17.40;99.90
16114;DHT22;8161;-33.910;151.156;2022-12-18T13:54:06;17.50;99.90
16114;DHT22;8161;-33.910;151.156;2022-12-18T13:56:45;17.50;99.90
16114;DHT22;8161;-33.910;151.156;2022-12-18T13:59:18;17.40;99.90
16114;DHT22;8161;-33.910;151.156;2022-12-18T14:01:50;17.30;99.90
16114;DHT22;8161;-33.910;151.156;2022-12-18T14:04:26;17.30;99.90
16114;DHT22;8161;-33.910;151.156;2022-12-18T14:07:06;17.40;99.90
16114;DHT22;8161;-33.910;151.156;2022-12-18T14:09:44;17.70;99.90
16114;DHT22;8161;-33.910;151.156;2022-12-18T14:12:26;17.40;99.90
16114;DHT22;8161;-33.910;151.156;2022-12-18T14:17:59;17.70;99.90
16114;DHT22;8161;-33.910;151.156;2022-12-18T14:20:32;17.30;99.90
16114;DHT22;8161;-33.910;151.156;2022-12-18T14:23:00;17.60;99.90
16114;DHT22;8161;-33.910;151.156;2022-12-18T14:25:29;17.80;99.90
16114;DHT22;8161;-33.910;151.156;2022-12-18T14:28:14;17.20;99.90
16114;DHT22;8161;-33.910;151.156;2022-12-18T14:30:43;17.10;99.90
16114;DHT22;8161;-33.910;151.156;2022-12-18T14:33:23;17.10;99.90
16114;DHT22;8161;-33.910;151.156;2022-12-18T14:35:59;17.10;99.90
16114;DHT22;8161;-33.910;151.156;2022-12-18T14:38:38;17.50;99.90
16114;DHT22;8161;-33.910;151.156;2022-12-18T14:41:13;17.30;99.90
16114;DHT22;8161;-33.910;151.156;2022-12-18T14:43:42;17.60;99.90
16114;DHT22;8161;-33.910;151.156;2022-12-18T14:46:27;17.50;99.90
16114;DHT22;8161;-33.910;151.156;2022-12-18T14:48:56;17.40;99.90
16114;DHT22;8161;-33.910;151.156;2022-12-18T14:51:31;17.40;99.90
16114;DHT22;8161;-33.910;151.156;2022-12-18T14:54:02;17.10;99.90
16114;DHT22;8161;-33.910;151.156;2022-12-18T14:56:37;17.30;99.90
16114;DHT22;8161;-33.910;151.156;2022-12-18T14:59:21;17.10;99.90
16114;DHT22;8161;-33.910;151.156;2022-12-18T15:04:43;17.30;99.90
16114;DHT22;8161;-33.910;151.156;2022-12-18T15:07:17;17.50;99.90
16114;DHT22;8161;-33.910;151.156;2022-12-18T15:10:09;17.30;99.90
16114;DHT22;8161;-33.910;151.156;2022-12-18T15:23:45;17.70;99.90
16114;DHT22;8161;-33.910;151.156;2022-12-18T15:26:15;17.90;99.90
16114;DHT22;8161;-33.910;151.156;2022-12-18T15:28:53;17.80;99.90
16114;DHT22;8161;-33.910;151.156;2022-12-18T15:31:32;17.60;99.90
16114;DHT22;8161;-33.910;151.156;2022-12-18T15:34:10;17.60;99.90
16114;DHT22;8161;-33.910;151.156;2022-12-18T15:36:38;17.50;99.90
16114;DHT22;8161;-33.910;151.156;2022-12-18T15:39:06;17.20;99.90
16114;DHT22;8161;-33.910;151.156;2022-12-18T15:41:35;17.20;99.90
16114;DHT22;8161;-33.910;151.156;2022-12-18T15:44:16;17.70;99.90
16114;DHT22;8161;-33.910;151.156;2022-12-18T15:46:50;17.00;99.90
16114;DHT22;8161;-33.910;151.156;2022-12-18T15:49:17;17.30;99.90
16114;DHT22;8161;-33.910;151.156;2022-12-18T15:51:47;17.30;99.90
16114;DHT22;8161;-33.910;151.156;2022-12-18T15:54:17;17.70;99.90
16114;DHT22;8161;-33.910;151.156;2022-12-18T15:57:04;17.70;99.90
16114;DHT22;8161;-33.910;151.156;2022-12-18T15:59:44;17.70;99.90
16114;DHT22;8161;-33.910;151.156;2022-12-18T16:02:17;17.10;99.90
16114;DHT22;8161;-33.910;151.156;2022-12-18T16:04:44;17.50;99.90
16114;DHT22;8161;-33.910;151.156;2022-12-18T16:07:12;17.50;99.90
16114;DHT22;8161;-33.910;151.156;2022-12-18T16:09:40;17.60;99.90
16114;DHT22;8161;-33.910;151.156;2022-12-18T16:12:22;17.30;99.90
16114;DHT22;8161;-33.910;151.156;2022-12-18T16:14:52;17.50;99.90
16114;DHT22;8161;-33.910;151.156;2022-12-18T16:17:19;17.60;99.90
16114;DHT22;8161;-33.910;151.156;2022-12-18T16:19:47;17.20;99.90
16114;DHT22;8161;-33.910;151.156;2022-12-18T16:22:34;17.40;99.90
16114;DHT22;8161;-33.910;151.156;2022-12-18T16:25:02;17.70;99.90
16114;DHT22;8161;-33.910;151.156;2022-12-18T16:27:29;17.10;99.90
16114;DHT22;8161;-33.910;151.156;2022-12-18T16:29:56;17.60;99.90
16114;DHT22;8161;-33.910;151.156;2022-12-18T16:32:23;17.40;99.90
16114;DHT22;8161;-33.910;151.156;2022-12-18T16:34:51;18.20;99.90
16114;DHT22;8161;-33.910;151.156;2022-12-18T16:37:18;17.40;99.90
16114;DHT22;8161;-33.910;151.156;2022-12-18T16:39:45;17.50;99.90
16114;DHT22;8161;-33.910;151.156;2022-12-18T16:42:17;17.40;99.90
16114;DHT22;8161;-33.910;151.156;2022-12-18T16:44:46;18.60;99.90
16114;DHT22;8161;-33.910;151.156;2022-12-18T16:47:14;17.50;99.90
16114;DHT22;8161;-33.910;151.156;2022-12-18T16:49:41;17.40;99.90
16114;DHT22;8161;-33.910;151.156;2022-12-18T16:52:11;17.70;99.90
16114;DHT22;8161;-33.910;151.156;2022-12-18T16:54:38;17.10;99.90
16114;DHT22;8161;-33.910;151.156;2022-12-18T16:57:05;17.30;99.90
16114;DHT22;8161;-33.910;151.156;2022-12-18T16:59:33;17.40;99.90
16114;DHT22;8161;-33.910;151.156;2022-12-18T17:02:00;17.20;99.90
16114;DHT22;8161;-33.910;151.156;2022-12-18T17:04:27;17.10;99.90
16114;DHT22;8161;-33.910;151.156;2022-12-18T17:06:57;17.40;99.90
16114;DHT22;8161;-33.910;151.156;2022-12-18T17:09:25;17.20;99.90
16114;DHT22;8161;-33.910;151.156;2022-12-18T17:11:53;17.20;99.90
16114;DHT22;8161;-33.910;151.156;2022-12-18T17:14:22;17.20;99.90
16114;DHT22;8161;-33.910;151.156;2022-12-18T17:16:51;17.20;99.90
16114;DHT22;8161;-33.910;151.156;2022-12-18T17:19:19;17.10;99.90
16114;DHT22;8161;-33.910;151.156;2022-12-18T17:21:49;17.20;99.90
16114;DHT22;8161;-33.910;151.156;2022-12-18T17:24:17;16.90;99.90
16114;DHT22;8161;-33.910;151.156;2022-12-18T17:26:45;17.20;99.90
16114;DHT22;8161;-33.910;151.156;2022-12-18T17:29:18;16.90;99.90
16114;DHT22;8161;-33.910;151.156;2022-12-18T17:31:47;17.40;99.90
16114;DHT22;8161;-33.910;151.156;2022-12-18T17:34:15;17.40;99.90
16114;DHT22;8161;-33.910;151.156;2022-12-18T17:36:42;16.90;99.90
16114;DHT22;8161;-33.910;151.156;2022-12-18T17:39:16;17.60;99.90
16114;DHT22;8161;-33.910;151.156;2022-12-18T17:41:45;17.40;99.90
16114;DHT22;8161;-33.910;151.156;2022-12-18T17:44:12;17.60;99.90
16114;DHT22;8161;-33.910;151.156;2022-12-18T17:46:39;17.40;99.90
16114;DHT22;8161;-33.910;151.156;2022-12-18T17:49:06;17.70;99.90
16114;DHT22;8161;-33.910;151.156;2022-12-18T17:51:34;17.00;99.90